Crystal City, Texas
Current Conditions -  °F | °C
As of 11:55 PM on Tuesday 21 Oct 2014 (Local Time) from KCZT Reporting Station
Broken Clouds Broken Clouds  
Wind Chill: 70°   Ceiling: 7500
Heat Index: 70°   Visibility: 10mi
Dew Point: 68°   Wind: 0mph
Humidity: 94%   Direction: NA
Pressure: 30"   Gusts: NA
Location:  28.68°N, 99.83°W
Report Text: KCZT 220455Z AUTO 00000KT 10SM BKN075 21/20 A3000 RMK AO2
Loading
Personal Weather Stations






























Interactive Weather Map
Tropical Storm Tracking
New forecast layout! Learn more

10-Day Weather Forecast

Advertisements
Track Severe Weather on mobile